createdAt,value
2024-02-29T00:04:12.510Z,23.1
2024-02-29T00:09:51.296Z,25
2024-02-29T00:15:30.481Z,25.4
2024-02-29T00:21:08.836Z,25.3
2024-02-29T00:26:32.569Z,25.1
2024-02-29T00:32:11.501Z,24.8
2024-02-29T00:37:56.207Z,24.6
2024-02-29T00:43:45.539Z,24.4
2024-02-29T00:49:25.034Z,23.8
2024-02-29T00:55:03.859Z,23.1
2024-02-29T01:00:42.662Z,25.1
2024-02-29T01:06:06.364Z,25.4
2024-02-29T01:11:44.916Z,25.3
2024-02-29T01:17:23.838Z,25.1
2024-02-29T01:22:50.628Z,24.9
2024-02-29T01:28:29.007Z,24.6
2024-02-29T01:34:19.959Z,24.4
2024-02-29T01:39:58.495Z,23.6
2024-02-29T01:45:21.641Z,23.3
2024-02-29T01:51:00.874Z,25.1
2024-02-29T01:56:41.379Z,25.5
2024-02-29T02:02:22.767Z,25.4
2024-02-29T02:08:02.079Z,25.1
2024-02-29T02:13:41.034Z,24.9
2024-02-29T02:18:48.670Z,24.6
2024-02-29T02:24:11.922Z,24.4
2024-02-29T02:29:35.207Z,24.1
2024-02-29T02:34:57.819Z,23.1
2024-02-29T02:40:21.144Z,24.8
2024-02-29T02:45:28.378Z,25.4
2024-02-29T02:50:51.761Z,25.3
2024-02-29T02:55:59.518Z,25.1
2024-02-29T03:01:38.545Z,24.9
2024-02-29T03:07:17.209Z,24.6
2024-02-29T03:12:56.366Z,24.4
2024-02-29T03:18:34.944Z,24.2
2024-02-29T03:24:13.786Z,23.1
2024-02-29T03:29:52.553Z,24.9
2024-02-29T03:35:31.214Z,25.5
2024-02-29T03:41:09.819Z,25.4
2024-02-29T03:46:48.675Z,23.9
2024-02-29T03:52:27.442Z,23.8
2024-02-29T03:58:05.999Z,23.6
2024-02-29T04:03:45.296Z,23.4
2024-02-29T04:09:23.817Z,23.1
2024-02-29T04:15:02.573Z,24.4
2024-02-29T04:20:41.526Z,25.4
2024-02-29T04:26:20.273Z,25.4
2024-02-29T04:31:58.776Z,24.2
2024-02-29T04:37:38.091Z,23.7
2024-02-29T04:43:16.466Z,23.6
2024-02-29T04:48:39.281Z,23.4
2024-02-29T04:54:18.138Z,23.1
2024-02-29T04:59:56.932Z,23.8
2024-02-29T05:05:36.011Z,25.4
2024-02-29T05:10:59.641Z,25.6
2024-02-29T05:16:40.329Z,25.3
2024-02-29T05:22:18.638Z,25.1
2024-02-29T05:27:57.673Z,24.9
2024-02-29T05:33:38.333Z,24.7
2024-02-29T05:39:17.199Z,24.5
2024-02-29T05:45:00.433Z,23.3
2024-02-29T05:50:23.944Z,24.1
2024-02-29T05:56:01.775Z,25.3
2024-02-29T06:01:41.115Z,25.6
2024-02-29T06:07:20.233Z,24.2
2024-02-29T06:13:00.530Z,23.9
2024-02-29T06:18:39.576Z,23.8
2024-02-29T06:24:18.454Z,23.6
2024-02-29T06:29:57.643Z,23.1
2024-02-29T06:35:37.107Z,23.6
2024-02-29T06:41:16.062Z,25.3
2024-02-29T06:46:39.891Z,25.6
2024-02-29T06:52:18.953Z,25.4
2024-02-29T06:57:58.887Z,25.1
2024-02-29T07:03:37.689Z,24.9
2024-02-29T07:09:17.219Z,24.7
2024-02-29T07:14:56.858Z,24.4
2024-02-29T07:20:35.802Z,23.3
2024-02-29T07:25:59.770Z,24.8
2024-02-29T07:31:39.067Z,25.6
2024-02-29T07:37:03.117Z,25.5
2024-02-29T07:42:27.336Z,25.3
2024-02-29T07:48:09.357Z,25.1
2024-02-29T07:53:48.630Z,24.9
2024-02-29T07:59:32.549Z,24.6
2024-02-29T08:05:12.952Z,23.4
2024-02-29T08:10:52.608Z,24.4
2024-02-29T08:16:35.333Z,25.5
2024-02-29T08:22:14.371Z,25.5
2024-02-29T08:27:37.401Z,25.3
2024-02-29T08:33:19.466Z,25.1
2024-02-29T08:38:57.575Z,24.9
2024-02-29T08:44:36.068Z,24.8
2024-02-29T08:50:16.275Z,24.6
2024-02-29T08:55:54.375Z,23.3
2024-02-29T09:01:33.389Z,25.2
2024-02-29T09:07:15.654Z,25.6
2024-02-29T09:12:54.023Z,25.6
2024-02-29T09:18:48.535Z,25.4
2024-02-29T09:24:14.751Z,25.2
2024-02-29T09:29:58.875Z,24.9
2024-02-29T09:35:41.820Z,24.8
2024-02-29T09:42:07.990Z,24.4
2024-02-29T09:47:39.303Z,24.2
2024-02-29T09:53:28.314Z,23.9
2024-02-29T09:58:55.183Z,23.7
2024-02-29T10:04:37.397Z,23.1
2024-02-29T10:10:19.753Z,24.9
2024-02-29T10:15:59.127Z,25.3
2024-02-29T10:21:40.560Z,25.2
2024-02-29T10:27:18.595Z,25
2024-02-29T10:33:00.101Z,24.8
2024-02-29T10:38:41.181Z,24.6
2024-02-29T10:44:19.953Z,24.4
2024-02-29T10:49:44.299Z,24.2
2024-02-29T10:55:24.250Z,23.9
2024-02-29T11:01:03.470Z,23.6
2024-02-29T11:06:42.538Z,23
2024-02-29T11:12:21.941Z,23.3
2024-02-29T11:17:29.898Z,25.1
2024-02-29T11:23:28.076Z,25.3
2024-02-29T11:29:07.625Z,25.1
2024-02-29T11:34:47.092Z,24.9
2024-02-29T11:40:39.643Z,24.7
2024-02-29T11:46:03.226Z,24.4
2024-02-29T11:51:45.201Z,24.3
2024-02-29T11:57:40.498Z,23.9
2024-02-29T12:03:20.520Z,23.7
2024-02-29T12:08:59.970Z,23.5
2024-02-29T12:14:43.455Z,23.2
2024-02-29T12:20:07.512Z,23
2024-02-29T12:25:50.323Z,22.8
2024-02-29T12:31:30.842Z,22.6
2024-02-29T12:37:11.374Z,22.3
2024-02-29T12:42:51.793Z,22.2
2024-02-29T12:48:32.218Z,22
2024-02-29T12:54:12.290Z,21.9
2024-02-29T12:59:56.920Z,21.7
2024-02-29T13:05:40.179Z,21.6
2024-02-29T13:11:05.661Z,21.4
2024-02-29T13:16:20.571Z,21.4
2024-02-29T13:22:00.890Z,21.3
2024-02-29T13:33:11.624Z,21.1
2024-02-29T13:38:51.608Z,20.9
2024-02-29T13:44:30.718Z,20.8
2024-02-29T13:50:12.111Z,20.8
2024-02-29T13:55:36.263Z,20.7
2024-02-29T14:01:00.473Z,20.6
2024-02-29T14:06:40.300Z,20.6
2024-02-29T14:12:20.191Z,20.6
2024-02-29T14:18:00.003Z,20.5
2024-02-29T14:23:41.296Z,20.4
2024-02-29T14:29:05.308Z,20.4
2024-02-29T14:34:46.272Z,20.3
2024-02-29T14:40:25.209Z,20.3
2024-02-29T14:46:05.062Z,20.3
2024-02-29T14:51:44.614Z,20.3
2024-02-29T14:57:25.527Z,20.2
2024-02-29T15:02:50.488Z,20.2
2024-02-29T15:08:31.346Z,20.2
2024-02-29T15:14:14.949Z,20.1
2024-02-29T15:19:55.434Z,20.1
2024-02-29T15:25:18.798Z,20.1
2024-02-29T15:30:42.420Z,20
2024-02-29T15:36:25.144Z,20
2024-02-29T15:42:04.269Z,20
2024-02-29T15:47:43.567Z,20
2024-02-29T15:53:26.554Z,19.9
2024-02-29T15:58:52.349Z,19.9
2024-02-29T16:04:32.298Z,19.9
2024-02-29T16:10:13.437Z,19.9
2024-02-29T16:15:40.718Z,19.9
2024-02-29T16:21:04.414Z,19.9
2024-02-29T16:26:44.503Z,20
2024-02-29T16:32:23.089Z,20
2024-02-29T16:38:04.632Z,20
2024-02-29T16:43:44.424Z,20
2024-02-29T16:49:26.837Z,20
2024-02-29T16:55:05.938Z,20
2024-02-29T17:00:45.925Z,19.9
2024-02-29T17:06:28.965Z,20
2024-02-29T17:12:10.917Z,20
2024-02-29T17:17:37.150Z,20
2024-02-29T17:23:16.507Z,20
2024-02-29T17:28:55.381Z,20
2024-02-29T17:34:34.846Z,20
2024-02-29T17:40:01.024Z,19.9
2024-02-29T17:45:39.645Z,19.9
2024-02-29T17:51:20.891Z,20
2024-02-29T17:57:00.717Z,20
2024-02-29T18:02:40.814Z,20
2024-02-29T18:08:28.973Z,19.9
2024-02-29T18:14:08.197Z,20.3
2024-02-29T18:19:47.589Z,21.5
2024-02-29T18:25:27.486Z,23.6
2024-02-29T18:31:06.785Z,24.7
2024-02-29T18:36:46.288Z,24.8
2024-02-29T18:42:25.895Z,24.7
2024-02-29T18:48:19.673Z,24.5
2024-02-29T18:54:00.828Z,24.3
2024-02-29T18:59:40.892Z,24.1
2024-02-29T19:05:22.455Z,23.9
2024-02-29T19:11:05.167Z,23.7
2024-02-29T19:16:13.448Z,23.4
2024-02-29T19:21:36.778Z,23.3
2024-02-29T19:27:19.832Z,21.9
2024-02-29T19:32:58.667Z,23.8
2024-02-29T19:38:41.393Z,24.8
2024-02-29T19:44:20.615Z,24.8
2024-02-29T19:49:45.271Z,24.8
2024-02-29T19:55:08.805Z,24.6
2024-02-29T20:00:48.729Z,24.4
2024-02-29T20:06:28.797Z,24.1
2024-02-29T20:11:52.828Z,23.9
2024-02-29T20:17:01.729Z,23.7
2024-02-29T20:22:26.915Z,23.5
2024-02-29T20:27:36.865Z,23.3
2024-02-29T20:33:02.198Z,22.1
2024-02-29T20:38:42.423Z,23
2024-02-29T20:44:07.231Z,24.6
2024-02-29T20:49:15.948Z,24.9
2024-02-29T20:54:39.901Z,24.8
2024-02-29T20:59:48.267Z,24.6
2024-02-29T21:04:56.439Z,24.4
2024-02-29T21:10:21.350Z,24.2
2024-02-29T21:15:45.117Z,23.9
2024-02-29T21:21:08.862Z,23.8
2024-02-29T21:26:32.726Z,23.5
2024-02-29T21:31:59.379Z,23.3
2024-02-29T21:37:22.813Z,23.1
2024-02-29T21:42:41.031Z,22.2
2024-02-29T21:48:20.475Z,23.6
2024-02-29T21:53:58.581Z,24.8
2024-02-29T21:59:38.050Z,24.9
2024-02-29T22:05:03.721Z,24.8
2024-02-29T22:10:44.299Z,24.6
2024-02-29T22:16:24.614Z,24.4
2024-02-29T22:22:07.150Z,23.2
2024-02-29T22:27:30.607Z,23
2024-02-29T22:33:10.205Z,24.8
2024-02-29T22:38:49.349Z,25.3
2024-02-29T22:44:40.258Z,25.1
2024-02-29T22:50:19.916Z,24.9
2024-02-29T22:55:58.969Z,24.7
2024-02-29T23:01:43.941Z,24.4
2024-02-29T23:07:23.914Z,24.2
2024-02-29T23:12:48.385Z,22.8
2024-02-29T23:18:11.842Z,23.6
2024-02-29T23:23:52.440Z,25.1
2024-02-29T23:29:36.241Z,25.3
2024-02-29T23:35:18.255Z,25.2
2024-02-29T23:40:42.493Z,24.9
2024-02-29T23:46:21.363Z,24.8
2024-02-29T23:51:59.697Z,24.5
2024-02-29T23:57:39.504Z,24.3
